Time;durP1;ratioP1;P1;durP2;ratioP2;P2;SDS_P1;SDS_P2;PMS_P1;PMS_P2;Temp;Humidity;BMP_temperature;BMP_pressure;BME280_temperature;BME280_humidity;BME280_pressure;Samples;Min_cycle;Max_cycle;Signal;HPM_P1;HPM_P2
2022/12/10 00:00:14;;;;;;;;;;;;;;;-0.14;100.00;100694.56;5072293;28;19920;-62
2022/12/10 00:02:39;;;;;;;;;;;;;;;-0.16;100.00;100688.50;5071845;28;19917;-60
2022/12/10 00:05:04;;;;;;;;;;;;;;;-0.17;100.00;100688.47;5071799;28;19923;-62
2022/12/10 00:07:29;;;;;;;;;;;;;;;-0.17;100.00;100686.75;5071679;28;19924;-60
2022/12/10 00:09:55;;;;;;;;;;;;;;;-0.19;100.00;100691.06;5072256;28;20011;-62
2022/12/10 00:12:20;;;;;;;;;;;;;;;-0.23;100.00;100703.94;5071752;28;19917;-63
2022/12/10 00:14:45;;;;;;;;;;;;;;;-0.27;100.00;100694.44;5071997;28;19916;-61
2022/12/10 00:17:10;;;;;;;;;;;;;;;-0.30;100.00;100690.13;5071860;28;19917;-63
2022/12/10 00:19:35;;;;;;;;;;;;;;;-0.36;100.00;100689.19;5071774;28;20316;-61
2022/12/10 00:22:01;;;;;;;;;;;;;;;-0.42;100.00;100689.13;5053517;28;19916;-62
2022/12/10 00:24:26;;;;;;;;;;;;;;;-0.47;100.00;100695.97;5072045;28;20326;-62
2022/12/10 00:26:51;;;;;;;;;;;;;;;-0.52;100.00;100692.47;5074570;28;19916;-62
2022/12/10 00:29:16;;;;;;;;;;;;;;;-0.59;100.00;100701.88;5075433;28;19916;-61
2022/12/10 00:31:41;;;;;;;;;;;;;;;-0.63;100.00;100697.53;5075081;28;19916;-63
2022/12/10 00:34:07;;;;;;;;;;;;;;;-0.62;100.00;100699.28;5075403;28;20272;-62
2022/12/10 00:36:59;;;;;;;;;;;;;;;-0.70;100.00;100706.09;5057298;28;20294;-63
2022/12/10 00:39:24;;;;;;;;;;;;;;;-0.79;100.00;100705.97;5072980;28;19916;-61
2022/12/10 00:41:50;;;;;;;;;;;;;;;-0.81;100.00;100699.91;5074846;28;19944;-62
2022/12/10 00:44:16;;;;;;;;;;;;;;;-0.86;100.00;100710.22;5074903;28;19979;-59
2022/12/10 00:46:41;;;;;;;;;;;;;;;-0.85;100.00;100705.91;5074935;28;20023;-60
2022/12/10 00:49:07;;;;;;;;;;;;;;;-0.87;100.00;100710.16;5074913;28;19912;-60
2022/12/10 00:51:32;;;;;;;;;;;;;;;-0.88;100.00;100716.22;5074877;28;19916;-60
2022/12/10 00:53:58;;;;;;;;;;;;;;;-0.92;100.00;100717.88;5077363;28;19916;-62
2022/12/10 00:56:28;;;;;;;;;;;;;;;-0.93;100.00;100713.56;5041908;28;20359;-61
2022/12/10 00:58:53;;;;;;;;;;;;;;;-0.89;100.00;100706.72;5074995;28;19939;-63
2022/12/10 01:01:19;;;;;;;;;;;;;;;-0.93;100.00;100704.94;5056838;28;20325;-61
2022/12/10 01:03:44;;;;;;;;;;;;;;;-0.95;100.00;100707.50;5074320;28;19920;-60
2022/12/10 01:06:14;;;;;;;;;;;;;;;-0.94;100.00;100717.00;5074684;28;19932;-61
2022/12/10 01:08:39;;;;;;;;;;;;;;;-0.96;100.00;100708.34;5056720;28;20401;-61
2022/12/10 01:11:05;;;;;;;;;;;;;;;-0.91;100.00;100726.50;5074663;28;19960;-62
2022/12/10 01:13:30;;;;;;;;;;;;;;;-0.90;100.00;100723.94;5074380;28;19916;-60
2022/12/10 01:15:55;;;;;;;;;;;;;;;-0.85;100.00;100726.59;5074593;28;20007;-58
2022/12/10 01:18:20;;;;;;;;;;;;;;;-0.84;100.00;100723.13;5074352;28;20387;-61
2022/12/10 01:20:46;;;;;;;;;;;;;;;-0.80;100.00;100728.38;5074780;28;19920;-61
2022/12/10 01:23:11;;;;;;;;;;;;;;;-0.74;100.00;100722.41;5074356;28;19923;-60
2022/12/10 01:25:36;;;;;;;;;;;;;;;-0.69;100.00;100728.47;5074518;28;19916;-59
2022/12/10 01:28:01;;;;;;;;;;;;;;;-0.57;100.00;100733.78;5074192;28;19912;-61
2022/12/10 01:30:26;;;;;;;;;;;;;;;-0.50;100.00;100743.34;5056031;28;19916;-60
2022/12/10 01:32:52;;;;;;;;;;;;;;;-0.47;100.00;100737.34;5073939;28;19925;-62
2022/12/10 01:35:17;;;;;;;;;;;;;;;-0.43;100.00;100741.69;5074398;28;19916;-61
2022/12/10 01:37:42;;;;;;;;;;;;;;;-0.40;100.00;100734.81;5073338;28;19998;-62
2022/12/10 01:40:08;;;;;;;;;;;;;;;-0.35;100.00;100730.56;5073865;28;19918;-61
2022/12/10 01:42:33;;;;;;;;;;;;;;;-0.34;100.00;100736.59;5056331;28;19912;-61
2022/12/10 01:45:00;;;;;;;;;;;;;;;-0.32;100.00;100733.19;5073511;28;20373;-62
2022/12/10 01:47:25;;;;;;;;;;;;;;;-0.32;100.00;100735.75;5073788;28;19926;-59
2022/12/10 01:49:50;;;;;;;;;;;;;;;-0.31;100.00;100746.97;5073886;28;19908;-60
2022/12/10 01:52:15;;;;;;;;;;;;;;;-0.31;100.00;100744.38;5073617;28;19936;-60
2022/12/10 01:54:43;;;;;;;;;;;;;;;-0.30;100.00;100743.56;5073785;28;20019;-62
2022/12/10 01:57:09;;;;;;;;;;;;;;;-0.31;100.00;100750.44;5073604;28;20050;-61
2022/12/10 01:59:35;;;;;;;;;;;;;;;-0.28;100.00;100753.06;5055747;28;19924;-63
2022/12/10 02:02:18;;;;;;;;;;;;;;;-0.30;100.00;100749.59;5055395;28;20164;-63
2022/12/10 02:05:02;;;;;;;;;;;;;;;-0.25;100.00;100747.91;5073631;28;19919;-61
2022/12/10 02:07:46;;;;;;;;;;;;;;;-0.26;100.00;100748.75;5073567;28;20002;-61
2022/12/10 02:10:23;;;;;;;;;;;;;;;-0.23;100.00;100750.50;5073235;28;19912;-62
2022/12/10 02:12:51;;;;;;;;;;;;;;;-0.25;100.00;100753.09;5055380;28;20318;-62
2022/12/10 02:15:35;;;;;;;;;;;;;;;-0.26;100.00;100750.47;5055280;28;20363;-63
2022/12/10 02:18:12;;;;;;;;;;;;;;;-0.28;100.00;100745.28;5055346;28;20436;-64
2022/12/10 02:20:41;;;;;;;;;;;;;;;-0.25;100.00;100744.47;5073231;28;20386;-60
2022/12/10 02:23:10;;;;;;;;;;;;;;;-0.26;100.00;100740.13;5055107;28;20363;-60
2022/12/10 02:25:43;;;;;;;;;;;;;;;-0.22;100.00;100747.06;5073443;28;19919;-60
2022/12/10 02:28:09;;;;;;;;;;;;;;;-0.22;100.00;100749.66;5073110;28;19913;-61
2022/12/10 02:30:34;;;;;;;;;;;;;;;-0.23;100.00;100737.56;5073048;28;19947;-62
2022/12/10 02:32:59;;;;;;;;;;;;;;;-0.15;100.00;100738.53;5072872;28;19920;-62
2022/12/10 02:35:25;;;;;;;;;;;;;;;-0.18;100.00;100738.50;5055335;28;19920;-61
2022/12/10 02:37:58;;;;;;;;;;;;;;;-0.19;100.00;100739.34;5055199;28;20035;-63
2022/12/10 02:40:24;;;;;;;;;;;;;;;-0.17;100.00;100741.09;5055176;28;20355;-62
2022/12/10 02:42:50;;;;;;;;;;;;;;;-0.17;100.00;100737.63;5054709;28;20261;-60
2022/12/10 02:45:16;;;;;;;;;;;;;;;-0.15;100.00;100743.72;5054919;28;19916;-60
2022/12/10 02:47:41;;;;;;;;;;;;;;;-0.16;100.00;100726.44;5054643;28;20378;-62
2022/12/10 02:50:06;;;;;;;;;;;;;;;-0.17;100.00;100732.44;5054462;28;19916;-60
2022/12/10 02:52:31;;;;;;;;;;;;;;;-0.17;100.00;100728.16;5072373;28;19913;-62
2022/12/10 02:54:57;;;;;;;;;;;;;;;-0.11;100.00;100732.50;5072952;28;19982;-60
2022/12/10 02:57:22;;;;;;;;;;;;;;;-0.13;100.00;100734.22;5072838;28;20007;-61
2022/12/10 02:59:51;;;;;;;;;;;;;;;-0.16;100.00;100726.44;5072394;28;19920;-62
2022/12/10 03:02:20;;;;;;;;;;;;;;;-0.17;100.00;100722.97;5055082;28;19981;-62
2022/12/10 03:04:51;;;;;;;;;;;;;;;-0.15;100.00;100733.34;5054589;28;19914;-63
2022/12/10 03:07:18;;;;;;;;;;;;;;;-0.15;100.00;100730.78;5072438;28;19912;-61
2022/12/10 03:09:45;;;;;;;;;;;;;;;-0.14;100.00;100737.66;5054206;28;19920;-63
2022/12/10 03:12:31;;;;;;;;;;;;;;;-0.16;100.00;100729.91;5054338;28;20360;-64
2022/12/10 03:15:00;;;;;;;;;;;;;;;-0.17;100.00;100730.75;5071604;28;19912;-63
2022/12/10 03:17:25;;;;;;;;;;;;;;;-0.22;100.00;100742.78;5038433;28;19913;-63
2022/12/10 03:19:51;;;;;;;;;;;;;;;-0.22;100.00;100737.59;5073145;28;20361;-61
2022/12/10 03:22:16;;;;;;;;;;;;;;;-0.22;100.00;100736.72;5054385;28;19962;-62
2022/12/10 03:24:41;;;;;;;;;;;;;;;-0.23;100.00;100730.69;5054345;28;19959;-63
2022/12/10 03:27:07;;;;;;;;;;;;;;;-0.22;100.00;100734.13;5054584;28;19963;-61
2022/12/10 03:29:36;;;;;;;;;;;;;;;-0.19;100.00;100736.75;5072038;28;20248;-62
2022/12/10 03:32:01;;;;;;;;;;;;;;;-0.18;100.00;100744.53;5054528;28;19912;-63
2022/12/10 03:34:27;;;;;;;;;;;;;;;-0.19;100.00;100739.34;5054582;28;20268;-62
2022/12/10 03:36:52;;;;;;;;;;;;;;;-0.16;100.00;100740.25;5072220;28;19912;-63
2022/12/10 03:39:17;;;;;;;;;;;;;;;-0.14;100.00;100742.84;5072022;28;20308;-62
2022/12/10 03:41:42;;;;;;;;;;;;;;;-0.15;100.00;100744.56;5054175;28;20375;-62
2022/12/10 03:44:08;;;;;;;;;;;;;;;-0.13;100.00;100744.56;5053783;28;20318;-61
2022/12/10 03:46:33;;;;;;;;;;;;;;;-0.13;100.00;100744.56;5054415;28;20364;-61
2022/12/10 03:48:59;;;;;;;;;;;;;;;-0.14;100.00;100746.28;5072169;28;19958;-62
2022/12/10 03:51:24;;;;;;;;;;;;;;;-0.09;100.00;100749.78;5071372;28;20383;-61
2022/12/10 03:53:49;;;;;;;;;;;;;;;-0.06;100.00;100746.38;5071494;28;20019;-61
2022/12/10 03:56:15;;;;;;;;;;;;;;;-0.06;100.00;100738.63;5071767;28;19948;-63
2022/12/10 03:58:40;;;;;;;;;;;;;;;-0.07;100.00;100742.91;5072163;28;19938;-62
2022/12/10 04:01:05;;;;;;;;;;;;;;;-0.04;100.00;100742.94;5073846;28;20015;-60
2022/12/10 04:03:30;;;;;;;;;;;;;;;-0.06;100.00;100743.78;5058183;28;20274;-61
2022/12/10 04:06:02;;;;;;;;;;;;;;;-0.08;100.00;100741.19;5076088;28;20216;-61
2022/12/10 04:08:28;;;;;;;;;;;;;;;-0.04;100.00;100750.72;5075777;28;20254;-63
2022/12/10 04:10:53;;;;;;;;;;;;;;;-0.02;100.00;100742.94;5075855;28;19956;-60
2022/12/10 04:18:46;;;;;;;;;;;;;;;-0.08;100.00;100748.94;5075598;28;20016;-62
2022/12/10 04:26:54;;;;;;;;;;;;;;;-0.03;100.00;100749.84;5075569;28;19919;-62
2022/12/10 04:29:20;;;;;;;;;;;;;;;0.01;100.00;100750.75;5042818;28;19912;-59
2022/12/10 04:31:46;;;;;;;;;;;;;;;-0.01;100.00;100742.97;5074886;28;19912;-63
2022/12/10 04:34:11;;;;;;;;;;;;;;;-0.06;100.00;100744.63;5057099;28;19920;-64
2022/12/10 04:36:36;;;;;;;;;;;;;;;-0.08;100.00;100742.88;5075193;28;19923;-61
2022/12/10 04:39:02;;;;;;;;;;;;;;;-0.05;100.00;100746.38;5075336;28;19970;-63
2022/12/10 04:41:27;;;;;;;;;;;;;;;-0.04;100.00;100750.72;5075599;28;19920;-62
2022/12/10 04:43:52;;;;;;;;;;;;;;;-0.06;100.00;100754.97;5075014;28;19924;-60
2022/12/10 04:46:17;;;;;;;;;;;;;;;-0.03;100.00;100756.75;5057176;28;19999;-63
2022/12/10 04:48:43;;;;;;;;;;;;;;;-0.04;100.00;100755.88;5075191;28;19924;-62
2022/12/10 04:51:08;;;;;;;;;;;;;;;-0.05;100.00;100758.44;5075066;28;20684;-61
2022/12/10 04:53:33;;;;;;;;;;;;;;;-0.03;100.00;100761.94;5074718;28;19920;-63
2022/12/10 04:55:58;;;;;;;;;;;;;;;0.00;100.00;100757.63;5074633;28;19924;-63
2022/12/10 04:58:23;;;;;;;;;;;;;;;-0.02;100.00;100755.88;5074963;28;19913;-62
2022/12/10 05:00:49;;;;;;;;;;;;;;;-0.01;100.00;100755.03;5074906;28;19925;-62
2022/12/10 05:03:14;;;;;;;;;;;;;;;0.00;100.00;100751.63;5074761;28;19922;-62
2022/12/10 05:05:39;;;;;;;;;;;;;;;-0.01;100.00;100760.22;5075097;28;19923;-63
2022/12/10 05:08:04;;;;;;;;;;;;;;;0.03;100.00;100759.38;5075483;28;19942;-63
2022/12/10 05:10:30;;;;;;;;;;;;;;;0.03;100.00;100753.34;5074784;28;20286;-64
2022/12/10 05:12:55;;;;;;;;;;;;;;;0.00;100.00;100755.03;5074440;28;19986;-61
2022/12/10 05:15:21;;;;;;;;;;;;;;;0.02;100.00;100747.31;5074584;28;19999;-63
2022/12/10 05:17:46;;;;;;;;;;;;;;;0.02;100.00;100746.44;5074297;28;19961;-62
2022/12/10 05:20:11;;;;;;;;;;;;;;;-0.01;100.00;100752.44;5056747;28;19923;-63
2022/12/10 05:25:20;;;;;;;;;;;;;;;0.09;100.00;100745.66;5073889;28;19931;-64
2022/12/10 05:27:45;;;;;;;;;;;;;;;0.07;100.00;100745.63;5074213;28;19917;-61
2022/12/10 05:30:10;;;;;;;;;;;;;;;0.06;100.00;100743.88;5056331;28;19924;-62
2022/12/10 05:32:36;;;;;;;;;;;;;;;0.09;100.00;100738.72;5074207;28;19912;-63
2022/12/10 05:35:01;;;;;;;;;;;;;;;0.08;100.00;100738.72;5056306;28;19912;-62
2022/12/10 05:37:27;;;;;;;;;;;;;;;0.06;100.00;100738.69;5056272;28;20272;-62
2022/12/10 05:39:52;;;;;;;;;;;;;;;0.07;100.00;100737.84;5056313;28;19951;-61
2022/12/10 05:42:17;;;;;;;;;;;;;;;0.05;100.00;100731.81;5074047;28;20001;-61
2022/12/10 05:44:42;;;;;;;;;;;;;;;0.08;100.00;100743.91;5073648;28;20014;-62
2022/12/10 05:47:07;;;;;;;;;;;;;;;0.07;100.00;100730.09;5073756;28;19920;-62
2022/12/10 05:49:33;;;;;;;;;;;;;;;0.05;100.00;100749.91;5073944;28;19913;-63
2022/12/10 05:51:58;;;;;;;;;;;;;;;0.05;100.00;100751.63;5073972;28;20278;-62
2022/12/10 05:54:23;;;;;;;;;;;;;;;0.03;100.00;100753.34;5073794;28;19952;-64
2022/12/10 05:56:48;;;;;;;;;;;;;;;-0.04;100.00;100745.53;5073821;28;19952;-60
2022/12/10 05:59:14;;;;;;;;;;;;;;;-0.01;100.00;100749.88;5073782;28;19920;-62
2022/12/10 06:01:39;;;;;;;;;;;;;;;-0.01;100.00;100747.28;5073500;28;19916;-64
2022/12/10 06:04:04;;;;;;;;;;;;;;;-0.02;100.00;100750.72;5055904;28;19913;-63
2022/12/10 06:06:31;;;;;;;;;;;;;;;0.02;100.00;100749.91;5039024;28;19916;-61
2022/12/10 06:08:57;;;;;;;;;;;;;;;-0.01;100.00;100755.03;5073557;28;19919;-60
2022/12/10 06:11:22;;;;;;;;;;;;;;;0.00;100.00;100755.03;5055084;28;20287;-60
2022/12/10 06:13:47;;;;;;;;;;;;;;;0.02;100.00;100752.47;5055618;28;20279;-62
2022/12/10 06:16:13;;;;;;;;;;;;;;;0.02;100.00;100754.19;5073270;28;20026;-61
2022/12/10 06:18:38;;;;;;;;;;;;;;;0.00;100.00;100752.44;5073379;28;20013;-63
2022/12/10 06:21:04;;;;;;;;;;;;;;;0.06;100.00;100768.91;5073679;28;19916;-60
2022/12/10 06:23:29;;;;;;;;;;;;;;;0.07;100.00;100750.78;5055061;28;19931;-61
2022/12/10 06:25:55;;;;;;;;;;;;;;;0.07;100.00;100766.31;5055042;28;20006;-61
2022/12/10 06:28:20;;;;;;;;;;;;;;;0.05;100.00;100762.84;5073208;28;19977;-61
2022/12/10 06:30:45;;;;;;;;;;;;;;;0.08;100.00;100760.31;5072946;28;19920;-61
2022/12/10 06:33:10;;;;;;;;;;;;;;;0.09;100.00;100771.53;5072880;28;20015;-62
2022/12/10 06:35:37;;;;;;;;;;;;;;;0.09;100.00;100772.38;5073025;28;20278;-63
2022/12/10 06:38:02;;;;;;;;;;;;;;;0.10;100.00;100771.53;5073034;28;19913;-62
2022/12/10 06:40:27;;;;;;;;;;;;;;;0.07;100.00;100775.78;5072635;28;19930;-62
2022/12/10 06:42:52;;;;;;;;;;;;;;;0.09;100.00;100779.28;5054981;28;19920;-62
2022/12/10 06:45:17;;;;;;;;;;;;;;;0.08;100.00;100769.78;5051464;28;19936;-61
2022/12/10 06:47:43;;;;;;;;;;;;;;;0.07;100.00;100776.66;5052960;28;19921;-62
2022/12/10 06:50:08;;;;;;;;;;;;;;;0.06;100.00;100774.09;5052940;28;19913;-63
2022/12/10 06:52:33;;;;;;;;;;;;;;;0.05;100.00;100782.69;5053229;28;19917;-61
2022/12/10 06:54:58;;;;;;;;;;;;;;;0.00;100.00;100793.00;5053029;28;20537;-64
2022/12/10 06:57:23;;;;;;;;;;;;;;;-0.02;100.00;100790.41;5051130;28;20011;-62
2022/12/10 06:59:49;;;;;;;;;;;;;;;-0.03;100.00;100804.16;5052637;28;20017;-64
2022/12/10 07:02:14;;;;;;;;;;;;;;;-0.04;100.00;100805.03;5053057;28;19928;-63
2022/12/10 07:04:39;;;;;;;;;;;;;;;-0.03;100.00;100799.00;5052893;28;20371;-62
2022/12/10 07:07:05;;;;;;;;;;;;;;;0.04;100.00;100809.41;5053634;28;19923;-62
2022/12/10 07:09:31;;;;;;;;;;;;;;;0.03;100.00;100799.94;5052361;28;19958;-62
2022/12/10 07:11:57;;;;;;;;;;;;;;;-0.02;100.00;100800.75;5052353;28;19986;-62
2022/12/10 07:14:22;;;;;;;;;;;;;;;-0.05;100.00;100794.66;5051202;28;20379;-63
2022/12/10 07:16:47;;;;;;;;;;;;;;;-0.07;100.00;100812.78;5052408;28;20530;-64
2022/12/10 07:19:12;;;;;;;;;;;;;;;-0.08;100.00;100807.56;5050955;28;19913;-62
2022/12/10 07:21:39;;;;;;;;;;;;;;;-0.07;100.00;100796.38;5052352;28;19963;-63
2022/12/10 07:24:06;;;;;;;;;;;;;;;-0.09;100.00;100803.28;5050724;28;19919;-63
2022/12/10 07:26:32;;;;;;;;;;;;;;;-0.10;100.00;100810.16;5052433;28;19917;-62
2022/12/10 07:28:58;;;;;;;;;;;;;;;-0.10;100.00;100815.34;5052236;28;19955;-63
2022/12/10 07:31:23;;;;;;;;;;;;;;;-0.10;100.00;100804.97;5051728;28;20530;-61
2022/12/10 07:33:52;;;;;;;;;;;;;;;-0.08;100.00;100811.03;5051968;28;19947;-64
2022/12/10 07:36:18;;;;;;;;;;;;;;;-0.03;100.00;100814.53;5053321;28;19912;-62
2022/12/10 07:38:43;;;;;;;;;;;;;;;-0.05;100.00;100812.78;5056657;28;19951;-62
2022/12/10 07:41:09;;;;;;;;;;;;;;;-0.10;100.00;100810.16;5056561;28;20299;-64
2022/12/10 07:43:38;;;;;;;;;;;;;;;-0.04;100.00;100797.28;5058581;28;19924;-64
2022/12/10 07:46:07;;;;;;;;;;;;;;;-0.02;100.00;100803.34;5076382;28;19920;-64
2022/12/10 07:48:33;;;;;;;;;;;;;;;-0.05;100.00;100802.44;5076418;28;19909;-63
2022/12/10 07:50:58;;;;;;;;;;;;;;;-0.02;100.00;100805.03;5076230;28;19923;-64
2022/12/10 07:53:23;;;;;;;;;;;;;;;-0.05;100.00;100820.53;5076131;28;19916;-65
2022/12/10 07:55:49;;;;;;;;;;;;;;;-0.06;100.00;100824.00;5076342;28;19924;-64
2022/12/10 07:58:14;;;;;;;;;;;;;;;-0.02;100.00;100815.41;5076107;28;20382;-62
2022/12/10 08:00:39;;;;;;;;;;;;;;;-0.02;100.00;100820.56;5076019;28;19920;-63
2022/12/10 08:03:04;;;;;;;;;;;;;;;-0.02;100.00;100812.81;5076057;28;19920;-64
2022/12/10 08:05:29;;;;;;;;;;;;;;;0.02;100.00;100829.25;5056972;28;19917;-63
2022/12/10 08:07:55;;;;;;;;;;;;;;;0.02;100.00;100826.66;5075778;28;19920;-65
2022/12/10 08:10:20;;;;;;;;;;;;;;;0.03;100.00;100833.56;5075488;28;19917;-63
2022/12/10 08:12:45;;;;;;;;;;;;;;;0.11;100.00;100837.09;5075652;28;20383;-65
2022/12/10 08:15:10;;;;;;;;;;;;;;;0.11;100.00;100843.16;5057384;28;19923;-63
2022/12/10 08:17:35;;;;;;;;;;;;;;;0.16;100.00;100840.59;5075809;28;20398;-62
2022/12/10 08:20:01;;;;;;;;;;;;;;;0.13;100.00;100835.38;5075514;28;20320;-61
2022/12/10 08:22:26;;;;;;;;;;;;;;;0.16;100.00;100838.88;5075741;28;19916;-61
2022/12/10 08:24:51;;;;;;;;;;;;;;;0.16;100.00;100843.19;5075613;28;20337;-61
2022/12/10 08:27:16;;;;;;;;;;;;;;;0.22;100.00;100853.59;5075259;28;19916;-62
2022/12/10 08:29:41;;;;;;;;;;;;;;;0.25;100.00;100848.44;5075273;28;19920;-61
2022/12/10 08:32:07;;;;;;;;;;;;;;;0.25;100.00;100851.03;5075476;28;19916;-64
2022/12/10 08:34:32;;;;;;;;;;;;;;;0.31;100.00;100851.09;5075003;28;19917;-63
2022/12/10 08:36:57;;;;;;;;;;;;;;;0.27;100.00;100852.78;5075389;28;19927;-61
2022/12/10 08:39:22;;;;;;;;;;;;;;;0.29;100.00;100850.22;5075431;28;19959;-63
2022/12/10 08:41:47;;;;;;;;;;;;;;;0.28;100.00;100854.53;5075254;28;20286;-63
2022/12/10 08:44:13;;;;;;;;;;;;;;;0.31;100.00;100862.31;5074306;28;19920;-63
2022/12/10 08:46:38;;;;;;;;;;;;;;;0.33;100.00;100859.72;5056900;28;20302;-63
2022/12/10 08:49:04;;;;;;;;;;;;;;;0.35;100.00;100868.41;5057330;28;19962;-63
2022/12/10 08:51:29;;;;;;;;;;;;;;;0.36;100.00;100863.22;5075121;28;20518;-62
2022/12/10 08:53:54;;;;;;;;;;;;;;;0.34;100.00;100864.94;5074624;28;19924;-62
2022/12/10 08:56:20;;;;;;;;;;;;;;;0.32;100.00;100856.28;5075107;28;20418;-63
2022/12/10 08:58:45;;;;;;;;;;;;;;;0.36;100.00;100863.22;5056832;28;19916;-62
2022/12/10 09:01:11;;;;;;;;;;;;;;;0.28;100.00;100859.69;5075184;28;20060;-62
2022/12/10 09:03:37;;;;;;;;;;;;;;;0.29;100.00;100873.53;5056662;28;20436;-61
2022/12/10 09:06:03;;;;;;;;;;;;;;;0.27;100.00;100873.50;5074688;28;19993;-65
2022/12/10 09:08:28;;;;;;;;;;;;;;;0.32;100.00;100884.75;5074667;28;19935;-61
2022/12/10 09:10:53;;;;;;;;;;;;;;;0.29;100.00;100876.94;5074547;28;19917;-61
2022/12/10 09:13:19;;;;;;;;;;;;;;;0.30;100.00;100877.81;5074321;28;19922;-63
2022/12/10 09:15:51;;;;;;;;;;;;;;;0.30;100.00;100883.88;5040428;28;19930;-61
2022/12/10 09:18:16;;;;;;;;;;;;;;;0.33;100.00;100883.91;5074346;28;19942;-63
2022/12/10 09:20:41;;;;;;;;;;;;;;;0.36;100.00;100886.53;5056771;28;19916;-61
2022/12/10 09:23:07;;;;;;;;;;;;;;;0.37;100.00;100883.09;5074226;28;20303;-63
2022/12/10 09:25:32;;;;;;;;;;;;;;;0.38;100.00;100886.56;5074569;28;19974;-62
2022/12/10 09:27:57;;;;;;;;;;;;;;;0.35;100.00;100896.88;5074456;28;19917;-61
2022/12/10 09:30:22;;;;;;;;;;;;;;;0.33;100.00;100893.38;5055963;28;19945;-62
2022/12/10 09:32:47;;;;;;;;;;;;;;;0.33;100.00;100894.25;5074565;28;20323;-63
2022/12/10 09:35:13;;;;;;;;;;;;;;;0.32;100.00;100897.69;5055201;28;19927;-61
2022/12/10 09:37:38;;;;;;;;;;;;;;;0.34;100.00;100893.41;5074052;28;19917;-65
2022/12/10 09:40:03;;;;;;;;;;;;;;;0.31;100.00;100898.56;5073895;28;20383;-62
2022/12/10 09:42:44;;;;;;;;;;;;;;;0.30;100.00;100891.66;5073840;28;19917;-64
2022/12/10 09:45:10;;;;;;;;;;;;;;;0.32;100.00;100892.50;5054785;28;20369;-62
2022/12/10 09:47:36;;;;;;;;;;;;;;;0.38;100.00;100895.16;5073902;28;19995;-63
2022/12/10 09:50:10;;;;;;;;;;;;;;;0.44;100.00;100902.13;5073794;28;20322;-63
2022/12/10 09:52:36;;;;;;;;;;;;;;;0.48;100.00;100898.72;5073428;28;19931;-61
2022/12/10 09:55:03;;;;;;;;;;;;;;;0.48;100.00;100893.53;5055789;28;19919;-61
2022/12/10 09:57:32;;;;;;;;;;;;;;;0.51;100.00;100898.75;5073622;28;19912;-62
2022/12/10 10:00:18;;;;;;;;;;;;;;;0.53;100.00;100895.31;5055428;28;19959;-63
2022/12/10 10:02:43;;;;;;;;;;;;;;;0.57;100.00;100901.41;5073257;28;19958;-61
2022/12/10 10:05:08;;;;;;;;;;;;;;;0.56;100.00;100903.13;5056287;28;20284;-62
2022/12/10 10:07:34;;;;;;;;;;;;;;;0.55;100.00;100906.53;5073432;28;19920;-60
2022/12/10 10:10:01;;;;;;;;;;;;;;;0.59;100.00;100897.09;5055329;28;19924;-61
2022/12/10 10:12:27;;;;;;;;;;;;;;;0.58;100.00;100897.97;5055415;28;20025;-61
2022/12/10 10:14:52;;;;;;;;;;;;;;;0.60;100.00;100892.78;5055022;28;19916;-61
2022/12/10 10:17:18;;;;;;;;;;;;;;;0.65;100.00;100902.31;5073304;28;19922;-61
2022/12/10 10:19:44;;;;;;;;;;;;;;;0.71;100.00;100902.38;5072958;28;19913;-60
2022/12/10 10:22:10;;;;;;;;;;;;;;;0.73;100.00;100912.78;5054293;28;19929;-63
2022/12/10 10:24:36;;;;;;;;;;;;;;;0.76;100.00;100911.03;5073345;28;19944;-62
2022/12/10 10:27:09;;;;;;;;;;;;;;;0.73;100.00;100910.19;5072619;28;19970;-61
2022/12/10 10:29:35;;;;;;;;;;;;;;;0.73;100.00;100910.19;5055033;28;19948;-61
2022/12/10 10:32:15;;;;;;;;;;;;;;;0.72;100.00;100903.25;5054292;28;20405;-63
2022/12/10 10:34:40;;;;;;;;;;;;;;;0.79;100.00;100918.00;5072715;28;19919;-61
2022/12/10 10:37:06;;;;;;;;;;;;;;;0.75;100.00;100913.66;5072470;28;19999;-61
2022/12/10 10:39:32;;;;;;;;;;;;;;;0.80;100.00;100914.53;5054979;28;19916;-61
2022/12/10 10:41:58;;;;;;;;;;;;;;;0.78;100.00;100906.78;5071483;28;19923;-60
2022/12/10 10:44:24;;;;;;;;;;;;;;;0.71;100.00;100912.75;5072838;28;20347;-63
2022/12/10 10:46:51;;;;;;;;;;;;;;;0.75;100.00;100913.66;5072001;28;19927;-61
2022/12/10 10:49:22;;;;;;;;;;;;;;;0.80;100.00;100912.81;5054905;28;20386;-61
2022/12/10 10:51:48;;;;;;;;;;;;;;;0.80;100.00;100919.72;5072402;28;19916;-61
2022/12/10 10:54:30;;;;;;;;;;;;;;;0.77;100.00;100919.69;5072953;28;19912;-61
2022/12/10 10:56:55;;;;;;;;;;;;;;;0.79;100.00;100925.78;5072709;28;19912;-63
2022/12/10 10:59:27;;;;;;;;;;;;;;;0.81;100.00;100919.75;5071260;28;20167;-61
2022/12/10 11:01:53;;;;;;;;;;;;;;;0.88;100.00;100920.66;5054573;28;19960;-62
2022/12/10 11:04:29;;;;;;;;;;;;;;;0.89;100.00;100917.22;5038149;28;19915;-62
2022/12/10 11:06:55;;;;;;;;;;;;;;;0.92;100.00;100925.00;5054452;28;20008;-61
2022/12/10 11:09:22;;;;;;;;;;;;;;;0.90;100.00;100921.53;5072051;28;19919;-62
2022/12/10 11:12:03;;;;;;;;;;;;;;;0.81;100.00;100926.66;5054176;28;19966;-62
2022/12/10 11:14:33;;;;;;;;;;;;;;;0.82;100.00;100920.59;5054895;28;20315;-61
2022/12/10 11:17:16;;;;;;;;;;;;;;;0.84;100.00;100922.38;5054731;28;20011;-61
2022/12/10 11:19:43;;;;;;;;;;;;;;;0.80;100.00;100917.13;5073804;28;19912;-60
2022/12/10 11:22:15;;;;;;;;;;;;;;;0.83;100.00;100924.94;5072332;28;19920;-61
2022/12/10 11:24:40;;;;;;;;;;;;;;;0.77;100.00;100914.50;5072375;28;19970;-62
2022/12/10 11:27:13;;;;;;;;;;;;;;;0.75;100.00;100921.41;5072722;28;19912;-62
2022/12/10 11:29:47;;;;;;;;;;;;;;;0.80;100.00;100917.13;5072294;28;19920;-62
2022/12/10 11:32:20;;;;;;;;;;;;;;;0.88;100.00;100912.88;5072015;28;19913;-62
2022/12/10 11:35:01;;;;;;;;;;;;;;;0.95;100.00;100922.44;5054173;28;20051;-61
2022/12/10 11:37:33;;;;;;;;;;;;;;;0.98;100.00;100920.75;5054246;28;20392;-61
2022/12/10 11:40:11;;;;;;;;;;;;;;;1.03;100.00;100921.63;5072305;28;19912;-63
2022/12/10 11:42:36;;;;;;;;;;;;;;;1.08;100.00;100909.56;5072072;28;19913;-62
2022/12/10 11:45:12;;;;;;;;;;;;;;;1.08;100.00;100901.78;5072194;28;20290;-61
2022/12/10 11:47:56;;;;;;;;;;;;;;;1.01;100.00;100913.00;5053978;28;19923;-62
2022/12/10 11:50:27;;;;;;;;;;;;;;;0.96;100.00;100899.13;5071879;28;19931;-62
2022/12/10 11:52:56;;;;;;;;;;;;;;;0.98;100.00;100896.56;5072049;28;19912;-62
2022/12/10 11:55:40;;;;;;;;;;;;;;;0.98;100.00;100888.78;5072039;28;19912;-62
2022/12/10 11:58:11;;;;;;;;;;;;;;;1.04;100.00;100897.47;5054286;28;20016;-62
2022/12/10 12:00:47;;;;;;;;;;;;;;;1.18;100.00;100892.38;5072281;28;19917;-63
2022/12/10 12:03:21;;;;;;;;;;;;;;;1.19;100.00;100885.47;5054119;28;19917;-62
2022/12/10 12:05:48;;;;;;;;;;;;;;;1.36;100.00;100892.47;5071822;28;19958;-61
2022/12/10 12:08:20;;;;;;;;;;;;;;;1.46;100.00;100896.84;5071820;28;19913;-62
2022/12/10 12:11:04;;;;;;;;;;;;;;;1.53;100.00;100893.44;5071917;28;19912;-62
2022/12/10 12:13:40;;;;;;;;;;;;;;;1.52;100.00;100890.81;5071701;28;19956;-62
2022/12/10 12:16:16;;;;;;;;;;;;;;;1.45;100.00;100891.66;5054096;28;20007;-62
2022/12/10 12:18:41;;;;;;;;;;;;;;;1.43;100.00;100891.63;5053760;28;20397;-62
2022/12/10 12:21:10;;;;;;;;;;;;;;;1.40;100.00;100888.19;5071905;28;19999;-62
2022/12/10 12:23:42;;;;;;;;;;;;;;;1.37;100.00;100896.78;5057726;28;19912;-64
2022/12/10 12:26:09;;;;;;;;;;;;;;;1.30;100.00;100888.97;5075445;28;19913;-62
2022/12/10 12:28:39;;;;;;;;;;;;;;;1.28;100.00;100886.41;5057488;28;20359;-63
2022/12/10 12:31:23;;;;;;;;;;;;;;;1.33;100.00;100889.00;5057155;28;19929;-61
2022/12/10 12:34:01;;;;;;;;;;;;;;;1.35;100.00;100885.56;5075284;28;19916;-60
2022/12/10 12:36:30;;;;;;;;;;;;;;;1.31;100.00;100880.34;5075226;28;19935;-61
2022/12/10 12:39:13;;;;;;;;;;;;;;;1.28;100.00;100890.69;5041188;28;19988;-61
2022/12/10 12:41:45;;;;;;;;;;;;;;;1.27;100.00;100886.38;5075319;28;20006;-61
2022/12/10 12:44:13;;;;;;;;;;;;;;;1.33;100.00;100895.06;5075195;28;19949;-62
2022/12/10 12:46:44;;;;;;;;;;;;;;;1.30;100.00;100891.56;5075034;28;19912;-61